createdAt,value
2022-09-15T00:01:03.172Z,94745.76
2022-09-15T00:03:30.032Z,94742.84
2022-09-15T00:05:57.008Z,94746.63
2022-09-15T00:08:25.168Z,94749.58
2022-09-15T00:10:54.833Z,94749.85
2022-09-15T00:13:23.264Z,94745.64
2022-09-15T00:15:50.214Z,94749.41
2022-09-15T00:18:17.686Z,94741.28
2022-09-15T00:20:46.557Z,94745.61
2022-09-15T00:23:15.468Z,94744.90
2022-09-15T00:25:48.783Z,94738.98
2022-09-15T00:28:17.349Z,94735.51
2022-09-15T00:30:46.214Z,94738.06
2022-09-15T00:33:14.995Z,94743.23
2022-09-15T00:35:44.586Z,94746.58
2022-09-15T00:38:13.412Z,94743.96
2022-09-15T00:40:59.572Z,94746.71
2022-09-15T00:44:04.377Z,94748.21
2022-09-15T00:46:39.309Z,94745.41
2022-09-15T00:49:15.653Z,94740.36
2022-09-15T00:52:02.070Z,94737.48
2022-09-15T00:54:37.711Z,94740.10
2022-09-15T00:57:15.271Z,94738.59
2022-09-15T00:59:43.407Z,94739.29
2022-09-15T01:02:21.609Z,94743.48
2022-09-15T01:04:53.703Z,94734.80
2022-09-15T01:07:34.731Z,94729.98
2022-09-15T01:10:22.860Z,94733.36
2022-09-15T01:12:49.916Z,94735.77
2022-09-15T01:15:17.122Z,94732.45
2022-09-15T01:17:59.878Z,94729.69
2022-09-15T01:20:38.718Z,94736.88
2022-09-15T01:23:34.813Z,94731.86
2022-09-15T01:26:20.387Z,94727.73
2022-09-15T01:29:04.676Z,94723.42
2022-09-15T01:31:57.452Z,94719.25
2022-09-15T01:34:26.855Z,94719.73
2022-09-15T01:37:01.343Z,94725.86
2022-09-15T01:39:35.280Z,94731.13
2022-09-15T01:42:12.980Z,94733.73
2022-09-15T01:44:48.129Z,94732.20
2022-09-15T01:47:21.384Z,94734.64
2022-09-15T01:49:54.135Z,94741.05
2022-09-15T01:52:23.628Z,94737.14
2022-09-15T01:54:55.930Z,94739.19
2022-09-15T01:57:23.412Z,94741.55
2022-09-15T01:59:51.748Z,94745.97
2022-09-15T02:02:48.489Z,94747.93
2022-09-15T02:05:25.805Z,94740.38
2022-09-15T02:07:59.571Z,94745.85
2022-09-15T02:10:38.583Z,94741.28
2022-09-15T02:13:49.004Z,94726.98
2022-09-15T02:16:22.639Z,94730.24
2022-09-15T02:19:03.052Z,94730.44
2022-09-15T02:21:55.151Z,94735.48
2022-09-15T02:24:30.217Z,94742.87
2022-09-15T02:26:59.812Z,94746.36
2022-09-15T02:29:29.435Z,94747.92
2022-09-15T02:32:02.635Z,94754.92
2022-09-15T02:34:35.507Z,94752.83
2022-09-15T02:37:04.936Z,94747.59
2022-09-15T02:39:35.887Z,94750.49
2022-09-15T02:42:03.079Z,94747.30
2022-09-15T02:44:31.231Z,94742.60
2022-09-15T02:47:00.707Z,94743.95
2022-09-15T02:49:27.947Z,94741.93
2022-09-15T02:51:54.838Z,94741.36
2022-09-15T02:54:22.073Z,94742.45
2022-09-15T02:56:48.746Z,94737.23
2022-09-15T02:59:15.550Z,94733.62
2022-09-15T03:01:42.310Z,94728.42
2022-09-15T03:04:09.088Z,94722.70
2022-09-15T03:06:36.557Z,94721.05
2022-09-15T03:09:08.216Z,94726.37
2022-09-15T03:11:36.690Z,94730.80
2022-09-15T03:14:06.262Z,94721.92
2022-09-15T03:16:34.967Z,94722.14
2022-09-15T03:19:02.321Z,94730.94
2022-09-15T03:21:30.135Z,94730.67
2022-09-15T03:23:58.924Z,94734.05
2022-09-15T03:26:26.257Z,94729.16
2022-09-15T03:28:53.660Z,94732.07
2022-09-15T03:31:21.016Z,94722.19
2022-09-15T03:33:48.243Z,94717.68
2022-09-15T03:36:15.070Z,94711.96
2022-09-15T03:38:41.821Z,94714.21
2022-09-15T03:41:11.681Z,94707.62
2022-09-15T03:43:39.493Z,94704.23
2022-09-15T03:46:08.315Z,94701.29
2022-09-15T03:48:36.808Z,94702.40
2022-09-15T03:51:08.295Z,94708.24
2022-09-15T03:53:37.810Z,94706.72
2022-09-15T03:56:14.001Z,94709.33
2022-09-15T03:58:40.959Z,94706.56
2022-09-15T04:01:07.804Z,94701.67
2022-09-15T04:03:37.520Z,94696.86
2022-09-15T04:06:08.953Z,94693.79
2022-09-15T04:08:35.674Z,94696.77
2022-09-15T04:11:10.717Z,94696.48
2022-09-15T04:13:39.336Z,94696.91
2022-09-15T04:16:11.075Z,94696.47
2022-09-15T04:18:38.582Z,94704.41
2022-09-15T04:21:08.447Z,94699.20
2022-09-15T04:23:35.909Z,94702.65
2022-09-15T04:26:06.832Z,94700.50
2022-09-15T04:28:37.155Z,94690.52
2022-09-15T04:31:15.664Z,94688.90
2022-09-15T04:33:44.399Z,94679.59
2022-09-15T04:36:22.792Z,94678.38
2022-09-15T04:38:50.989Z,94685.23
2022-09-15T04:41:19.176Z,94681.80
2022-09-15T04:43:46.846Z,94685.40
2022-09-15T04:46:18.624Z,94682.20
2022-09-15T04:48:46.416Z,94680.16
2022-09-15T04:51:16.230Z,94679.75
2022-09-15T04:53:43.266Z,94668.89
2022-09-15T04:56:15.753Z,94660.15
2022-09-15T04:58:45.154Z,94657.48
2022-09-15T05:01:20.649Z,94653.20
2022-09-15T05:03:47.650Z,94654.05
2022-09-15T05:06:17.069Z,94646.84
2022-09-15T05:08:48.223Z,94652.24
2022-09-15T05:11:15.738Z,94643.22
2022-09-15T05:13:42.508Z,94642.81
2022-09-15T05:16:15.926Z,94638.27
2022-09-15T05:18:44.155Z,94632.98
2022-09-15T05:21:13.548Z,94633.39
2022-09-15T05:23:41.361Z,94634.94
2022-09-15T05:26:11.894Z,94657.23
2022-09-15T05:28:39.646Z,94664.98
2022-09-15T05:31:12.310Z,94678.80
2022-09-15T05:33:40.280Z,94685.55
2022-09-15T05:36:10.285Z,94694.16
2022-09-15T05:38:37.136Z,94685.74
2022-09-15T05:41:18.064Z,94683.48
2022-09-15T05:43:47.275Z,94687.27
2022-09-15T05:46:15.723Z,94688.55
2022-09-15T05:48:42.976Z,94682.02
2022-09-15T05:51:09.764Z,94680.41
2022-09-15T05:53:37.647Z,94687.86
2022-09-15T05:56:12.275Z,94698.55
2022-09-15T05:58:40.995Z,94699.03
2022-09-15T06:01:12.118Z,94696.27
2022-09-15T06:03:39.434Z,94700.87
2022-09-15T06:06:06.752Z,94707.66
2022-09-15T06:08:36.037Z,94714.14
2022-09-15T06:11:11.744Z,94711.11
2022-09-15T06:13:39.216Z,94715.13
2022-09-15T06:16:11.922Z,94725.48
2022-09-15T06:18:40.393Z,94727.24
2022-09-15T06:21:17.447Z,94730.40
2022-09-15T06:23:49.954Z,94737.79
2022-09-15T06:26:19.710Z,94745.64
2022-09-15T06:28:52.773Z,94747.02
2022-09-15T06:31:20.280Z,94748.15
2022-09-15T06:33:51.557Z,94753.23
2022-09-15T06:36:20.811Z,94753.47
2022-09-15T06:38:49.349Z,94752.42
2022-09-15T06:41:17.602Z,94752.44
2022-09-15T06:43:45.820Z,94751.42
2022-09-15T06:46:28.690Z,94745.39
2022-09-15T06:48:56.177Z,94750.59
2022-09-15T06:51:35.155Z,94755.96
2022-09-15T06:54:04.278Z,94752.46
2022-09-15T06:56:37.895Z,94747.16
2022-09-15T06:59:07.524Z,94750.38
2022-09-15T07:01:34.420Z,94755.11
2022-09-15T07:04:05.415Z,94759.36
2022-09-15T07:06:34.074Z,94768.77
2022-09-15T07:09:03.931Z,94764.83
2022-09-15T07:11:31.828Z,94764.70
2022-09-15T07:13:59.053Z,94760.32
2022-09-15T07:16:26.201Z,94759.56
2022-09-15T07:18:56.977Z,94761.69
2022-09-15T07:21:25.165Z,94758.82
2022-09-15T07:23:55.104Z,94759.63
2022-09-15T07:26:23.068Z,94759.44
2022-09-15T07:28:53.902Z,94753.14
2022-09-15T07:31:24.168Z,94762.09
2022-09-15T07:33:51.468Z,94766.41
2022-09-15T07:36:18.452Z,94773.60
2022-09-15T07:38:48.107Z,94776.94
2022-09-15T07:41:20.947Z,94772.44
2022-09-15T07:43:53.538Z,94769.27
2022-09-15T07:49:09.079Z,94768.57
2022-09-15T07:51:35.941Z,94766.99
2022-09-15T07:54:02.729Z,94759.27
2022-09-15T07:56:29.506Z,94763.53
2022-09-15T07:58:58.828Z,94757.27
2022-09-15T08:01:25.848Z,94756.12
2022-09-15T08:03:53.527Z,94751.41
2022-09-15T08:06:27.910Z,94743.64
2022-09-15T08:08:59.941Z,94738.34
2022-09-15T08:11:28.643Z,94728.95
2022-09-15T08:13:55.507Z,94727.55
2022-09-15T08:16:24.454Z,94724.42
2022-09-15T08:18:55.647Z,94722.17
2022-09-15T08:21:28.941Z,94728.58
2022-09-15T08:23:58.171Z,94733.29
2022-09-15T08:26:27.900Z,94737.67
2022-09-15T08:28:54.615Z,94744.92
2022-09-15T08:31:24.559Z,94744.48
2022-09-15T08:33:53.516Z,94749.63
2022-09-15T08:36:22.310Z,94751.64
2022-09-15T08:38:49.715Z,94752.27
2022-09-15T08:41:22.422Z,94753.16
2022-09-15T08:43:58.438Z,94747.64
2022-09-15T08:46:36.565Z,94755.96
2022-09-15T08:49:40.907Z,94761.17
2022-09-15T08:52:17.428Z,94750.00
2022-09-15T08:54:44.605Z,94742.98
2022-09-15T08:57:20.171Z,94745.66
2022-09-15T08:59:47.308Z,94745.86
2022-09-15T09:02:36.385Z,94742.83
2022-09-15T09:05:11.682Z,94741.27
2022-09-15T09:07:41.432Z,94736.97
2022-09-15T09:10:08.177Z,94733.31
2022-09-15T09:12:47.225Z,94719.38
2022-09-15T09:15:32.867Z,94710.85
2022-09-15T09:18:29.822Z,94704.86
2022-09-15T09:20:59.479Z,94709.12
2022-09-15T09:23:29.848Z,94709.09
2022-09-15T09:25:58.511Z,94714.05
2022-09-15T09:28:40.421Z,94713.38
2022-09-15T09:31:18.582Z,94710.53
2022-09-15T09:33:54.001Z,94701.20
2022-09-15T09:36:21.571Z,94687.38
2022-09-15T09:38:50.622Z,94681.83
2022-09-15T09:41:25.726Z,94683.23
2022-09-15T09:43:55.902Z,94686.27
2022-09-15T09:46:22.775Z,94691.72
2022-09-15T09:48:54.999Z,94684.67
2022-09-15T09:51:37.847Z,94681.63
2022-09-15T09:54:16.445Z,94675.77
2022-09-15T09:56:44.735Z,94663.73
2022-09-15T09:59:47.607Z,94664.55
2022-09-15T10:02:28.373Z,94666.43
2022-09-15T10:05:05.938Z,94662.90
2022-09-15T10:07:34.569Z,94665.83
2022-09-15T10:10:02.241Z,94668.69
2022-09-15T10:12:31.811Z,94667.98
2022-09-15T10:15:20.889Z,94669.38
2022-09-15T10:17:49.354Z,94671.14
2022-09-15T10:20:32.959Z,94666.98
2022-09-15T10:23:24.634Z,94670.66
2022-09-15T10:26:01.589Z,94675.92
2022-09-15T10:28:28.558Z,94677.29
2022-09-15T10:31:00.025Z,94681.70
2022-09-15T10:33:53.014Z,94675.92
2022-09-15T10:36:29.678Z,94656.43
2022-09-15T10:39:05.095Z,94640.63
2022-09-15T10:41:35.683Z,94635.64
2022-09-15T10:44:21.216Z,94627.89
2022-09-15T10:47:07.372Z,94620.67
2022-09-15T10:49:55.167Z,94611.03
2022-09-15T10:52:40.315Z,94606.18
2022-09-15T10:55:53.059Z,94621.14
2022-09-15T10:58:40.949Z,94626.41
2022-09-15T11:01:19.442Z,94630.92
2022-09-15T11:04:07.658Z,94638.59
2022-09-15T11:06:37.748Z,94635.61
2022-09-15T11:09:35.071Z,94643.11
2022-09-15T11:12:28.422Z,94643.38
2022-09-15T11:15:16.591Z,94641.10
2022-09-15T11:17:46.529Z,94635.28
2022-09-15T11:20:33.609Z,94635.04
2022-09-15T11:23:07.409Z,94639.02
2022-09-15T11:25:39.817Z,94638.27
2022-09-15T11:28:23.652Z,94636.99
2022-09-15T11:31:18.554Z,94625.16
2022-09-15T11:33:55.587Z,94619.14
2022-09-15T11:36:40.643Z,94617.64
2022-09-15T11:39:24.139Z,94615.54
2022-09-15T11:41:58.113Z,94610.77
2022-09-15T11:44:30.944Z,94601.80
2022-09-15T11:47:06.641Z,94589.43
2022-09-15T11:49:39.547Z,94577.54
2022-09-15T11:52:18.868Z,94573.61
2022-09-15T11:55:07.313Z,94566.95
2022-09-15T11:58:09.624Z,94561.51
2022-09-15T12:00:41.919Z,94553.93
2022-09-15T12:03:32.840Z,94546.48
2022-09-15T12:06:08.643Z,94535.54
2022-09-15T12:08:50.502Z,94534.52
2022-09-15T12:11:22.885Z,94531.80
2022-09-15T12:14:47.380Z,94539.45
2022-09-15T12:16:46.907Z,94549.38
2022-09-15T12:19:41.972Z,94540.11
2022-09-15T12:22:29.807Z,94542.73
2022-09-15T12:25:45.602Z,94532.21
2022-09-15T12:28:35.154Z,94532.77
2022-09-15T12:31:30.656Z,94530.63
2022-09-15T12:34:03.814Z,94519.46
2022-09-15T12:36:35.329Z,94515.94
2022-09-15T12:39:04.902Z,94513.91
2022-09-15T12:41:33.225Z,94512.59
2022-09-15T12:44:10.408Z,94507.09
2022-09-15T12:46:37.372Z,94504.85
2022-09-15T12:49:04.582Z,94494.07
2022-09-15T12:51:39.211Z,94492.75
2022-09-15T12:54:09.662Z,94491.17
2022-09-15T12:56:36.702Z,94488.23
2022-09-15T12:59:12.338Z,94477.03
2022-09-15T13:01:45.386Z,94480.76
2022-09-15T13:04:27.950Z,94473.01
2022-09-15T13:07:18.302Z,94466.35
2022-09-15T13:13:07.883Z,94454.95
2022-09-15T13:15:41.333Z,94445.13
2022-09-15T13:18:18.746Z,94440.02
2022-09-15T13:21:46.404Z,94444.11
2022-09-15T13:25:02.220Z,94448.33
2022-09-15T13:31:05.054Z,94435.98
2022-09-15T13:41:26.174Z,94451.48
2022-09-15T13:44:19.221Z,94454.07
2022-09-15T13:47:28.292Z,94446.34
2022-09-15T13:50:21.730Z,94445.04
2022-09-15T13:53:25.759Z,94449.48
2022-09-15T13:56:56.607Z,94447.64
2022-09-15T14:02:12.751Z,94462.30
2022-09-15T14:02:32.599Z,94466.70
2022-09-15T14:04:59.527Z,94479.64
2022-09-15T14:07:28.978Z,94481.68
2022-09-15T14:09:56.443Z,94476.78
2022-09-15T14:12:31.849Z,94479.50
2022-09-15T14:15:12.921Z,94476.91
2022-09-15T14:18:01.506Z,94481.52
2022-09-15T14:20:31.982Z,94485.69
2022-09-15T14:23:00.225Z,94492.95
2022-09-15T14:25:32.172Z,94490.63
2022-09-15T14:27:58.917Z,94500.87
2022-09-15T14:30:33.041Z,94505.12
2022-09-15T14:33:02.958Z,94506.96
2022-09-15T14:35:38.120Z,94502.41
2022-09-15T14:41:40.347Z,94495.52
2022-09-15T14:47:29.793Z,94481.04
2022-09-15T14:50:29.091Z,94479.27
2022-09-15T14:53:16.054Z,94477.48
2022-09-15T14:59:21.764Z,94475.19
2022-09-15T15:02:02.922Z,94460.88
2022-09-15T15:04:42.669Z,94458.13
2022-09-15T15:07:38.831Z,94450.93
2022-09-15T15:10:14.686Z,94453.52
2022-09-15T15:12:47.087Z,94460.58
2022-09-15T15:15:16.639Z,94460.95
2022-09-15T15:17:49.584Z,94451.64
2022-09-15T15:20:18.228Z,94445.76
2022-09-15T15:23:29.846Z,94441.10
2022-09-15T15:26:37.028Z,94443.90
2022-09-15T15:29:10.137Z,94444.58
2022-09-15T15:31:42.934Z,94453.83
2022-09-15T15:34:32.286Z,94475.76
2022-09-15T15:37:49.783Z,94480.77
2022-09-15T15:40:36.227Z,94475.45
2022-09-15T15:43:10.178Z,94469.37
2022-09-15T15:46:02.102Z,94470.25
2022-09-15T15:48:45.446Z,94479.98
2022-09-15T15:51:15.367Z,94488.73
2022-09-15T15:54:10.481Z,94491.29
2022-09-15T15:56:38.109Z,94499.27
2022-09-15T15:59:17.350Z,94506.68
2022-09-15T16:01:53.321Z,94503.52
2022-09-15T16:04:43.973Z,94505.86
2022-09-15T16:07:17.936Z,94510.86
2022-09-15T16:09:48.157Z,94513.77
2022-09-15T16:12:20.835Z,94516.48
2022-09-15T16:14:50.146Z,94518.06
2022-09-15T16:17:23.339Z,94521.93
2022-09-15T16:19:51.495Z,94532.41
2022-09-15T16:25:58.473Z,94521.73
2022-09-15T16:28:26.131Z,94507.46
2022-09-15T16:30:52.961Z,94494.52
2022-09-15T16:33:27.374Z,94502.48
2022-09-15T16:36:09.754Z,94508.97
2022-09-15T16:38:37.845Z,94507.27
2022-09-15T16:41:15.492Z,94501.98
2022-09-15T16:43:44.488Z,94496.29
2022-09-15T16:46:13.526Z,94487.51
2022-09-15T16:48:42.842Z,94480.20
2022-09-15T16:51:29.901Z,94470.59
2022-09-15T16:54:02.543Z,94461.81
2022-09-15T16:56:49.869Z,94453.50
2022-09-15T16:59:19.119Z,94448.83
2022-09-15T17:01:47.514Z,94438.84
2022-09-15T17:04:19.430Z,94437.38
2022-09-15T17:06:46.176Z,94430.19
2022-09-15T17:09:13.644Z,94424.04
2022-09-15T17:11:41.078Z,94426.10
2022-09-15T17:17:49.320Z,94411.49
2022-09-15T17:20:24.135Z,94410.29
2022-09-15T17:22:52.538Z,94411.21
2022-09-15T17:25:40.046Z,94417.13
2022-09-15T17:28:16.066Z,94416.00
2022-09-15T17:30:42.841Z,94416.17
2022-09-15T17:33:13.678Z,94415.52
2022-09-15T17:35:41.745Z,94407.26
2022-09-15T17:38:12.250Z,94409.44
2022-09-15T17:40:57.955Z,94411.77
2022-09-15T17:43:39.875Z,94417.05
2022-09-15T17:46:09.138Z,94420.19
2022-09-15T17:48:38.789Z,94416.87
2022-09-15T17:51:08.346Z,94414.75
2022-09-15T17:53:35.347Z,94413.56
2022-09-15T17:56:08.407Z,94407.22
2022-09-15T17:58:38.445Z,94406.73
2022-09-15T18:01:15.605Z,94410.45
2022-09-15T18:03:44.966Z,94406.68
2022-09-15T18:06:14.976Z,94407.06
2022-09-15T18:08:44.894Z,94397.60
2022-09-15T18:11:14.653Z,94397.10
2022-09-15T18:13:41.491Z,94390.00
2022-09-15T18:16:13.596Z,94387.63
2022-09-15T18:18:43.221Z,94381.92
2022-09-15T18:21:22.877Z,94378.04
2022-09-15T18:23:49.668Z,94369.81
2022-09-15T18:26:17.012Z,94364.63
2022-09-15T18:28:44.465Z,94366.15
2022-09-15T18:31:14.746Z,94362.91
2022-09-15T18:33:41.740Z,94355.15
2022-09-15T18:36:09.506Z,94353.19
2022-09-15T18:38:36.773Z,94351.48
2022-09-15T18:41:04.773Z,94354.27
2022-09-15T18:43:32.066Z,94360.36
2022-09-15T18:46:00.915Z,94353.00
2022-09-15T18:48:28.673Z,94358.16
2022-09-15T18:50:55.706Z,94362.81
2022-09-15T18:53:22.882Z,94360.09
2022-09-15T18:55:49.734Z,94362.39
2022-09-15T18:58:17.891Z,94365.62
2022-09-15T19:00:46.057Z,94375.97
2022-09-15T19:03:14.420Z,94383.23
2022-09-15T19:05:41.746Z,94392.45
2022-09-15T19:08:09.483Z,94386.00
2022-09-15T19:10:39.903Z,94383.20
2022-09-15T19:13:06.834Z,94388.77
2022-09-15T19:15:34.865Z,94389.30
2022-09-15T19:18:03.345Z,94395.96
2022-09-15T19:20:30.235Z,94395.77
2022-09-15T19:22:59.040Z,94392.71
2022-09-15T19:25:25.970Z,94390.86
2022-09-15T19:27:52.844Z,94390.72
2022-09-15T19:30:19.682Z,94393.11
2022-09-15T19:32:46.947Z,94388.70
2022-09-15T19:35:14.159Z,94396.58
2022-09-15T19:37:42.987Z,94392.02
2022-09-15T19:40:13.486Z,94391.39
2022-09-15T19:42:42.949Z,94386.17
2022-09-15T19:45:11.970Z,94381.48
2022-09-15T19:47:39.802Z,94378.59
2022-09-15T19:50:08.907Z,94378.86
2022-09-15T19:52:36.122Z,94379.71
2022-09-15T19:55:03.404Z,94378.77
2022-09-15T19:57:30.215Z,94380.35
2022-09-15T19:59:57.111Z,94386.00
2022-09-15T20:02:24.494Z,94392.96
2022-09-15T20:04:51.268Z,94396.65
2022-09-15T20:07:18.273Z,94392.92
2022-09-15T20:09:45.162Z,94387.50
2022-09-15T20:12:12.135Z,94385.59
2022-09-15T20:14:39.076Z,94388.17
2022-09-15T20:17:12.276Z,94385.00
2022-09-15T20:19:39.215Z,94387.87
2022-09-15T20:22:05.924Z,94392.45
2022-09-15T20:24:32.729Z,94393.51
2022-09-15T20:26:59.654Z,94395.90
2022-09-15T20:29:26.703Z,94397.30
2022-09-15T20:31:53.591Z,94401.48
2022-09-15T20:34:20.347Z,94399.06
2022-09-15T20:36:47.753Z,94407.55
2022-09-15T20:39:16.103Z,94418.42
2022-09-15T20:41:46.327Z,94422.04
2022-09-15T20:44:13.720Z,94428.30
2022-09-15T20:46:41.025Z,94421.36
2022-09-15T20:49:09.288Z,94420.60
2022-09-15T20:51:36.262Z,94422.05
2022-09-15T20:54:04.485Z,94416.23
2022-09-15T20:56:35.064Z,94417.70
2022-09-15T20:59:03.117Z,94412.20
2022-09-15T21:01:35.349Z,94412.90
2022-09-15T21:04:03.176Z,94417.00
2022-09-15T21:06:31.690Z,94425.59
2022-09-15T21:08:59.472Z,94424.80
2022-09-15T21:11:28.200Z,94435.45
2022-09-15T21:13:56.188Z,94425.94
2022-09-15T21:16:26.037Z,94428.09
2022-09-15T21:18:53.771Z,94426.04
2022-09-15T21:21:26.055Z,94429.30
2022-09-15T21:23:55.261Z,94436.73
2022-09-15T21:26:24.910Z,94439.23
2022-09-15T21:29:00.891Z,94438.13
2022-09-15T21:31:33.327Z,94438.02
2022-09-15T21:34:00.675Z,94432.48
2022-09-15T21:36:30.764Z,94429.27
2022-09-15T21:38:59.271Z,94426.69
2022-09-15T21:41:33.268Z,94431.55
2022-09-15T21:44:01.207Z,94430.73
2022-09-15T21:46:31.374Z,94435.54
2022-09-15T21:49:00.316Z,94442.25
2022-09-15T21:51:29.722Z,94450.66
2022-09-15T21:53:59.573Z,94452.45
2022-09-15T21:56:28.517Z,94445.77
2022-09-15T21:58:55.640Z,94440.06
2022-09-15T22:01:28.090Z,94448.34
2022-09-15T22:04:00.916Z,94449.69
2022-09-15T22:06:37.487Z,94450.27
2022-09-15T22:09:07.816Z,94448.90
2022-09-15T22:11:35.871Z,94457.27
2022-09-15T22:14:08.342Z,94468.85
2022-09-15T22:16:38.100Z,94470.31
2022-09-15T22:19:07.171Z,94471.35
2022-09-15T22:21:41.758Z,94470.53
2022-09-15T22:24:12.962Z,94473.30
2022-09-15T22:26:41.924Z,94466.42
2022-09-15T22:29:08.850Z,94465.19
2022-09-15T22:31:36.433Z,94462.82
2022-09-15T22:34:04.374Z,94458.34
2022-09-15T22:36:32.108Z,94448.10
2022-09-15T22:39:05.466Z,94447.78
2022-09-15T22:41:35.634Z,94454.93
2022-09-15T22:44:03.113Z,94461.20
2022-09-15T22:46:30.331Z,94467.84
2022-09-15T22:48:57.639Z,94464.35
2022-09-15T22:51:25.149Z,94467.33
2022-09-15T22:53:57.879Z,94466.48
2022-09-15T22:56:26.420Z,94463.14
2022-09-15T22:58:53.991Z,94462.29
2022-09-15T23:01:24.555Z,94461.66
2022-09-15T23:03:53.791Z,94464.15
2022-09-15T23:06:21.507Z,94468.99
2022-09-15T23:08:57.100Z,94468.02
2022-09-15T23:11:26.520Z,94463.84
2022-09-15T23:13:54.412Z,94453.86
2022-09-15T23:16:23.377Z,94452.36
2022-09-15T23:18:51.238Z,94446.45
2022-09-15T23:21:18.556Z,94444.95
2022-09-15T23:23:49.099Z,94442.41
2022-09-15T23:26:19.644Z,94443.86
2022-09-15T23:28:47.618Z,94446.26
2022-09-15T23:31:15.472Z,94444.92
2022-09-15T23:33:43.698Z,94452.42
2022-09-15T23:36:13.433Z,94452.70
2022-09-15T23:38:43.177Z,94451.20
2022-09-15T23:41:11.161Z,94449.72
2022-09-15T23:43:38.501Z,94460.88
2022-09-15T23:46:05.531Z,94459.27
2022-09-15T23:48:33.253Z,94457.63
2022-09-15T23:51:00.598Z,94455.58
2022-09-15T23:53:27.944Z,94458.71
2022-09-15T23:55:55.842Z,94463.11
2022-09-15T23:58:22.655Z,94463.90
